Time;durP1;ratioP1;P1;durP2;ratioP2;P2;SDS_P1;SDS_P2;PMS_P1;PMS_P2;Temp;Humidity;BMP_temperature;BMP_pressure;BME280_temperature;BME280_humidity;BME280_pressure;Samples;Min_cycle;Max_cycle;Signal;HPM_P1;HPM_P2
2022/03/24 00:01:34;;;;;;;87.85;41.92;;;;;;;7.61;74.74;102938.88;5012723;28;20034;-56
2022/03/24 00:03:59;;;;;;;83.97;40.70;;;;;;;7.58;74.45;102940.84;5013013;28;20507;-56
2022/03/24 00:06:24;;;;;;;79.65;39.33;;;;;;;7.59;74.31;102939.91;5005737;28;20049;-56
2022/03/24 00:08:49;;;;;;;86.80;43.15;;;;;;;7.61;74.37;102940.69;4993515;28;20045;-56
2022/03/24 00:11:17;;;;;;;85.75;41.78;;;;;;;7.62;73.70;102942.38;5007747;28;20044;-56
2022/03/24 00:13:43;;;;;;;79.57;40.72;;;;;;;7.57;72.95;102937.34;5013026;28;20037;-56
2022/03/24 00:16:08;;;;;;;77.40;39.85;;;;;;;7.58;73.06;102935.53;4995897;28;20497;-56
2022/03/24 00:18:34;;;;;;;82.53;40.55;;;;;;;7.58;72.82;102928.41;5001403;28;20252;-56
2022/03/24 00:20:59;;;;;;;85.80;40.42;;;;;;;7.59;73.78;102931.94;4992454;28;20037;-56
2022/03/24 00:23:25;;;;;;;83.00;39.95;;;;;;;7.56;73.19;102926.78;4992661;28;20041;-56
2022/03/24 00:25:50;;;;;;;78.97;39.53;;;;;;;7.52;72.96;102927.91;4999424;28;20568;-54
2022/03/24 00:28:16;;;;;;;75.38;38.83;;;;;;;7.43;73.36;102918.66;4999715;28;20052;-54
2022/03/24 00:30:41;;;;;;;77.78;40.38;;;;;;;7.35;73.70;102927.09;5013327;28;20029;-55
2022/03/24 00:33:07;;;;;;;84.45;39.22;;;;;;;7.29;73.89;102930.94;5011696;28;20025;-55
2022/03/24 00:35:32;;;;;;;72.90;37.40;;;;;;;7.16;75.18;102918.47;5000375;28;20050;-56
2022/03/24 00:37:58;;;;;;;80.25;38.90;;;;;;;7.18;75.20;102932.50;4993102;28;20037;-54
2022/03/24 00:40:23;;;;;;;82.82;37.13;;;;;;;7.15;75.35;102922.94;4992209;28;20504;-55
2022/03/24 00:42:48;;;;;;;74.85;36.70;;;;;;;7.14;76.09;102918.53;5008276;28;20065;-55
2022/03/24 00:45:13;;;;;;;70.50;35.95;;;;;;;7.09;75.22;102915.28;4999268;28;20018;-55
2022/03/24 00:47:42;;;;;;;74.55;35.42;;;;;;;6.96;75.68;102922.25;5005605;28;20014;-56
2022/03/24 00:50:08;;;;;;;68.35;36.17;;;;;;;6.71;76.13;102921.81;4991976;28;20172;-55
2022/03/24 00:52:34;;;;;;;69.35;34.75;;;;;;;6.64;77.30;102923.09;5002629;28;20374;-55
2022/03/24 00:55:00;;;;;;;70.00;35.70;;;;;;;6.65;78.33;102926.59;5001476;28;20088;-55
2022/03/24 00:57:25;;;;;;;70.30;35.28;;;;;;;6.70;78.40;102920.13;5004254;28;20037;-55
2022/03/24 00:59:51;;;;;;;74.60;37.33;;;;;;;6.73;77.57;102904.00;5010636;28;20448;-55
2022/03/24 01:02:17;;;;;;;81.95;38.30;;;;;;;6.75;77.34;102914.53;5007483;28;20702;-55
2022/03/24 01:04:42;;;;;;;72.35;36.03;;;;;;;6.76;78.13;102910.09;4991980;28;20088;-55
2022/03/24 01:07:07;;;;;;;71.22;36.67;;;;;;;6.76;77.21;102904.78;4993176;28;20030;-55
2022/03/24 01:09:33;;;;;;;75.28;37.88;;;;;;;6.78;77.53;102913.50;5004205;28;20579;-55
2022/03/24 01:11:58;;;;;;;76.47;36.88;;;;;;;6.73;77.23;102908.44;5011941;28;20033;-56
2022/03/24 01:14:25;;;;;;;89.18;38.97;;;;;;;6.69;77.92;102905.09;5012717;28;20030;-55
2022/03/24 01:16:51;;;;;;;77.53;37.15;;;;;;;6.57;79.31;102908.44;5003188;28;20397;-55
2022/03/24 01:19:16;;;;;;;73.10;35.78;;;;;;;6.37;78.26;102916.63;4999751;28;20107;-56
2022/03/24 01:21:41;;;;;;;73.38;35.03;;;;;;;6.28;79.72;102910.88;5002173;28;20030;-56
2022/03/24 01:24:08;;;;;;;77.60;36.78;;;;;;;6.23;80.73;102907.63;4992004;28;20485;-56
2022/03/24 01:26:33;;;;;;;78.97;38.90;;;;;;;6.23;81.38;102896.13;4993189;28;20433;-56
2022/03/24 01:28:59;;;;;;;78.55;38.47;;;;;;;6.24;81.36;102900.50;5005115;28;20037;-56
2022/03/24 01:31:25;;;;;;;86.75;38.28;;;;;;;6.26;81.73;102894.19;5001883;28;20100;-56
2022/03/24 01:33:50;;;;;;;74.03;38.45;;;;;;;6.23;79.56;102899.66;5014897;28;20028;-56
2022/03/24 01:36:16;;;;;;;81.82;37.63;;;;;;;6.06;80.58;102892.59;5016299;28;20586;-56
2022/03/24 01:38:42;;;;;;;76.47;36.45;;;;;;;6.05;81.63;102895.31;5015035;28;20018;-56
2022/03/24 01:41:07;;;;;;;89.53;37.83;;;;;;;6.12;82.69;102886.09;5007729;28;20021;-56
2022/03/24 01:43:34;;;;;;;93.40;39.10;;;;;;;6.21;81.89;102882.97;4996320;28;20057;-56
2022/03/24 01:45:59;;;;;;;78.97;38.42;;;;;;;6.26;80.56;102888.00;4996539;28;20037;-56
2022/03/24 01:48:26;;;;;;;79.90;38.22;;;;;;;6.28;80.10;102880.81;5003054;28;20381;-56
2022/03/24 01:50:52;;;;;;;73.63;37.10;;;;;;;6.11;79.62;102887.91;5013067;28;20068;-55
2022/03/24 01:53:18;;;;;;;76.07;35.58;;;;;;;5.86;81.59;102890.09;5002258;28;20089;-56
2022/03/24 01:55:45;;;;;;;71.93;36.38;;;;;;;5.71;82.79;102878.50;4998456;28;20030;-55
2022/03/24 01:58:11;;;;;;;75.85;36.10;;;;;;;5.69;84.63;102875.06;4995507;28;20212;-55
2022/03/24 02:00:37;;;;;;;76.45;36.10;;;;;;;5.75;84.71;102864.13;5000970;28;20026;-56
2022/03/24 02:03:04;;;;;;;77.75;36.72;;;;;;;5.75;83.54;102869.44;5007826;28;20317;-55
2022/03/24 02:05:34;;;;;;;75.38;35.47;;;;;;;5.59;83.73;102874.66;4995252;28;20026;-56
2022/03/24 02:08:03;;;;;;;78.53;35.75;;;;;;;5.52;85.38;102871.47;4995337;28;20509;-56
2022/03/24 02:10:33;;;;;;;78.70;38.75;;;;;;;5.47;87.04;102870.00;4996174;28;20402;-56
2022/03/24 02:12:59;;;;;;;77.93;36.75;;;;;;;5.50;85.74;102868.06;5015379;28;20090;-56
2022/03/24 02:15:25;;;;;;;77.50;36.60;;;;;;;5.54;86.19;102874.06;5016068;28;20133;-57
2022/03/24 02:17:52;;;;;;;75.60;36.42;;;;;;;5.59;85.93;102869.38;5013416;28;20025;-56
2022/03/24 02:20:19;;;;;;;82.75;37.70;;;;;;;5.60;84.35;102865.78;5014779;28;20034;-57
2022/03/24 02:22:45;;;;;;;75.95;35.55;;;;;;;5.57;83.90;102868.59;5014898;28;20033;-56
2022/03/24 02:25:11;;;;;;;75.88;36.15;;;;;;;5.51;84.23;102864.44;5015022;28;20365;-56
2022/03/24 02:27:38;;;;;;;79.07;37.42;;;;;;;5.47;84.96;102864.72;5012553;28;20041;-53
2022/03/24 02:30:04;;;;;;;75.95;37.25;;;;;;;5.43;85.06;102869.28;5015395;28;20017;-55
2022/03/24 02:32:30;;;;;;;79.78;38.35;;;;;;;5.41;84.48;102871.16;5014360;28;20025;-55
2022/03/24 02:34:55;;;;;;;79.18;38.10;;;;;;;5.41;84.45;102871.16;5012808;28;20514;-56
2022/03/24 02:37:23;;;;;;;76.30;36.80;;;;;;;5.30;84.15;102878.81;4995478;28;20106;-55
2022/03/24 02:39:57;;;;;;;74.22;35.65;;;;;;;5.13;85.79;102874.34;5013654;28;20037;-56
2022/03/24 02:42:25;;;;;;;74.45;36.83;;;;;;;5.01;87.45;102858.09;5008763;28;20282;-56
2022/03/24 02:44:54;;;;;;;81.45;38.58;;;;;;;5.07;88.21;102870.19;4993191;28;20026;-55
2022/03/24 02:47:20;;;;;;;69.70;36.20;;;;;;;5.09;86.57;102867.47;4994725;28;20108;-55
2022/03/24 02:49:48;;;;;;;82.85;39.58;;;;;;;5.01;86.15;102868.69;4994853;28;20091;-56
2022/03/24 02:52:15;;;;;;;78.25;37.75;;;;;;;4.90;87.96;102864.84;4995124;28;20113;-56
2022/03/24 02:54:41;;;;;;;78.15;37.97;;;;;;;4.84;87.79;102869.50;4994964;28;20034;-54
2022/03/24 02:57:08;;;;;;;81.68;37.38;;;;;;;4.86;88.69;102865.00;5011978;28;20021;-56
2022/03/24 02:59:33;;;;;;;81.35;37.70;;;;;;;4.92;88.53;102858.56;5012925;28;20033;-56
2022/03/24 03:02:13;;;;;;;77.10;38.90;;;;;;;4.97;87.75;102858.31;5006465;28;20040;-55
2022/03/24 03:04:40;;;;;;;81.07;37.42;;;;;;;4.91;88.40;102872.72;5013796;28;20408;-56
2022/03/24 03:07:05;;;;;;;85.40;36.05;;;;;;;4.86;88.42;102870.28;4995582;28;20129;-56
2022/03/24 03:09:33;;;;;;;72.47;35.63;;;;;;;4.85;89.17;102867.72;5000468;28;20444;-56
2022/03/24 03:11:58;;;;;;;73.78;35.78;;;;;;;4.89;88.92;102871.06;4995949;28;20026;-55
2022/03/24 03:14:24;;;;;;;86.25;36.67;;;;;;;4.89;88.03;102871.94;4995672;28;20455;-55
2022/03/24 03:16:50;;;;;;;82.38;36.92;;;;;;;4.89;87.88;102863.13;5010400;28;20060;-56
2022/03/24 03:19:19;;;;;;;70.07;35.92;;;;;;;4.91;88.10;102866.59;5012279;28;20056;-56
2022/03/24 03:21:45;;;;;;;77.30;36.78;;;;;;;4.92;87.30;102865.63;4995022;28;20092;-56
2022/03/24 03:24:11;;;;;;;75.38;36.35;;;;;;;4.86;87.58;102865.00;4993631;28;20099;-56
2022/03/24 03:26:38;;;;;;;73.75;36.13;;;;;;;4.84;88.41;102866.03;5008977;28;20033;-56
2022/03/24 03:29:06;;;;;;;80.25;37.00;;;;;;;4.85;88.53;102871.25;5006518;28;20380;-55
2022/03/24 03:31:31;;;;;;;78.40;35.92;;;;;;;4.81;88.29;102874.94;4981129;28;20017;-56
2022/03/24 03:33:56;;;;;;;77.85;37.38;;;;;;;4.74;88.80;102865.59;5013186;28;20128;-56
2022/03/24 03:36:23;;;;;;;75.07;37.28;;;;;;;4.69;88.58;102872.06;5014265;28;20053;-56
2022/03/24 03:38:49;;;;;;;85.18;38.53;;;;;;;4.56;89.43;102863.81;5013983;28;20883;-56
2022/03/24 03:41:15;;;;;;;75.28;37.92;;;;;;;4.48;90.72;102867.69;5013954;28;20444;-57
2022/03/24 03:43:42;;;;;;;78.15;37.85;;;;;;;4.48;92.16;102867.69;5010508;28;20025;-55
2022/03/24 03:46:08;;;;;;;72.40;36.15;;;;;;;4.48;92.68;102872.09;5006728;28;20033;-55
2022/03/24 03:48:35;;;;;;;71.78;35.72;;;;;;;4.45;91.85;102874.91;5010242;28;20380;-55
2022/03/24 03:51:00;;;;;;;74.22;35.25;;;;;;;4.48;92.02;102878.28;4993705;28;20034;-56
2022/03/24 03:53:25;;;;;;;75.90;35.22;;;;;;;4.50;91.68;102872.91;4999892;28;20120;-55
2022/03/24 03:55:51;;;;;;;80.30;35.63;;;;;;;4.48;90.82;102872.97;5007070;28;20105;-55
2022/03/24 03:58:16;;;;;;;80.50;37.33;;;;;;;4.46;91.81;102877.50;5013885;28;20132;-55
2022/03/24 04:00:53;;;;;;;70.93;36.42;;;;;;;4.44;91.52;102875.81;5013522;28;20025;-56
2022/03/24 04:03:20;;;;;;;70.00;35.30;;;;;;;4.42;91.35;102878.53;5013113;28;20472;-55
2022/03/24 04:05:45;;;;;;;78.68;35.22;;;;;;;4.44;91.11;102867.88;5006759;28;20065;-56
2022/03/24 04:08:11;;;;;;;80.38;39.25;;;;;;;4.45;91.19;102875.75;5001983;28;20053;-55
2022/03/24 04:10:38;;;;;;;77.45;37.35;;;;;;;4.48;90.83;102870.34;5009314;28;20017;-56
2022/03/24 04:13:04;;;;;;;75.80;36.53;;;;;;;4.47;90.94;102868.59;4993647;28;20360;-56
2022/03/24 04:15:29;;;;;;;84.32;37.67;;;;;;;4.48;90.53;102877.38;5010992;28;20320;-54
2022/03/24 04:17:55;;;;;;;75.57;36.58;;;;;;;4.46;90.30;102874.84;5014053;28;20153;-55
2022/03/24 04:20:21;;;;;;;72.75;34.88;;;;;;;4.45;90.14;102880.19;5012695;28;20018;-55
2022/03/24 04:22:50;;;;;;;72.78;34.47;;;;;;;4.39;90.69;102873.38;5013450;28;20060;-55
2022/03/24 04:25:20;;;;;;;73.43;34.83;;;;;;;4.36;92.11;102873.56;4992056;28;20116;-54
2022/03/24 04:27:49;;;;;;;73.85;36.33;;;;;;;4.33;90.84;102878.97;5001956;28;20499;-56
2022/03/24 04:30:15;;;;;;;73.25;36.45;;;;;;;4.32;91.55;102879.91;5013359;28;20036;-55
2022/03/24 04:32:41;;;;;;;74.72;36.60;;;;;;;4.32;91.90;102876.41;5012867;28;20033;-56
2022/03/24 04:35:08;;;;;;;80.63;36.17;;;;;;;4.31;90.84;102883.44;5010074;28;20504;-56
2022/03/24 04:37:34;;;;;;;74.88;36.85;;;;;;;4.34;90.43;102879.81;5012988;28;20039;-56
2022/03/24 04:39:59;;;;;;;86.53;36.00;;;;;;;4.33;91.08;102867.53;5012113;28;20435;-56
2022/03/24 04:42:25;;;;;;;72.25;36.20;;;;;;;4.30;91.16;102874.66;5013037;28;20205;-56
2022/03/24 04:44:50;;;;;;;77.07;34.78;;;;;;;4.30;90.81;102873.81;5013124;28;20017;-56
2022/03/24 04:47:15;;;;;;;80.35;36.80;;;;;;;4.33;91.63;102872.81;5012066;28;20033;-55
2022/03/24 04:49:41;;;;;;;76.38;35.83;;;;;;;4.32;91.35;102879.03;5012830;28;20025;-55
2022/03/24 04:52:08;;;;;;;80.97;35.17;;;;;;;4.29;91.08;102885.31;5013098;28;20455;-55
2022/03/24 04:54:34;;;;;;;78.00;37.25;;;;;;;4.25;90.99;102886.41;5012113;28;20080;-55
2022/03/24 04:56:59;;;;;;;82.75;37.78;;;;;;;4.20;92.00;102877.81;5012067;28;20071;-54
2022/03/24 04:59:24;;;;;;;81.95;36.33;;;;;;;4.14;91.80;102875.44;4995088;28;20775;-56
2022/03/24 05:01:49;;;;;;;73.53;35.70;;;;;;;4.07;91.41;102875.72;5009867;28;20041;-55
2022/03/24 05:04:18;;;;;;;74.82;35.33;;;;;;;4.06;91.91;102876.66;5007608;28;20036;-54
2022/03/24 05:06:43;;;;;;;72.95;35.30;;;;;;;4.09;92.14;102884.44;5008046;28;20164;-55
2022/03/24 05:09:08;;;;;;;81.30;36.25;;;;;;;4.03;91.40;102879.41;5002429;28;20516;-55
2022/03/24 05:11:34;;;;;;;74.28;35.42;;;;;;;3.97;91.60;102879.72;4996977;28;20424;-54
2022/03/24 05:14:01;;;;;;;82.00;36.30;;;;;;;3.96;92.69;102885.06;5009447;28;20029;-56
2022/03/24 05:16:27;;;;;;;81.38;35.60;;;;;;;3.92;92.45;102882.56;5002963;28;20508;-55
2022/03/24 05:18:52;;;;;;;73.55;36.00;;;;;;;3.91;92.21;102890.53;4998121;28;20124;-55
2022/03/24 05:21:18;;;;;;;76.80;34.75;;;;;;;3.93;93.06;102886.03;5016310;28;20030;-55
2022/03/24 05:23:43;;;;;;;77.20;36.35;;;;;;;3.93;92.53;102883.41;5016658;28;20025;-56
2022/03/24 05:26:08;;;;;;;78.65;36.25;;;;;;;3.91;92.88;102887.91;5016094;28;20057;-55
2022/03/24 05:28:33;;;;;;;75.88;35.47;;;;;;;3.88;92.63;102891.53;5015756;28;20213;-56
2022/03/24 05:30:59;;;;;;;80.53;36.33;;;;;;;3.86;93.57;102898.66;4998459;28;20493;-56
2022/03/24 05:33:24;;;;;;;72.68;34.85;;;;;;;3.80;92.61;102891.03;5002371;28;20037;-55
2022/03/24 05:35:50;;;;;;;75.47;35.45;;;;;;;3.80;93.27;102896.31;5004881;28;20056;-56
2022/03/24 05:38:15;;;;;;;82.68;35.50;;;;;;;3.80;92.59;102888.38;4995746;28;20034;-55
2022/03/24 05:40:41;;;;;;;83.13;36.38;;;;;;;3.79;92.63;102889.28;5008615;28;20316;-55
2022/03/24 05:43:06;;;;;;;84.60;36.20;;;;;;;3.79;92.95;102893.72;4998147;28;20034;-56
2022/03/24 05:45:31;;;;;;;78.03;35.75;;;;;;;3.72;93.75;102895.78;5003938;28;20453;-55
2022/03/24 05:47:57;;;;;;;87.75;36.13;;;;;;;3.64;93.84;102892.59;4996573;28;20029;-55
2022/03/24 05:50:24;;;;;;;81.07;35.28;;;;;;;3.57;95.80;102889.34;5002715;28;20029;-55
2022/03/24 05:52:50;;;;;;;75.93;36.92;;;;;;;3.55;95.66;102893.84;5015595;28;20018;-56
2022/03/24 05:55:16;;;;;;;75.72;36.50;;;;;;;3.52;96.47;102897.47;5012826;28;20492;-55
2022/03/24 05:57:42;;;;;;;82.25;37.78;;;;;;;3.48;96.16;102892.38;4995566;28;20415;-55
2022/03/24 06:00:07;;;;;;;76.93;36.55;;;;;;;3.42;98.50;102900.56;4996634;28;20390;-55
2022/03/24 06:02:33;;;;;;;83.95;37.00;;;;;;;3.44;97.44;102894.28;5015106;28;20025;-55
2022/03/24 06:04:59;;;;;;;78.90;35.75;;;;;;;3.50;97.53;102898.47;5014573;28;20021;-55
2022/03/24 06:07:25;;;;;;;78.03;36.70;;;;;;;3.54;98.22;102902.69;5016353;28;20471;-56
2022/03/24 06:09:50;;;;;;;78.65;36.72;;;;;;;3.61;97.17;102906.78;5003999;28;20057;-56
2022/03/24 06:12:16;;;;;;;78.63;36.30;;;;;;;3.66;97.05;102907.44;4996749;28;20037;-55
2022/03/24 06:14:41;;;;;;;77.15;34.67;;;;;;;3.75;96.94;102908.84;5011003;28;20492;-56
2022/03/24 06:17:07;;;;;;;76.35;35.40;;;;;;;3.84;96.76;102903.16;5012746;28;20040;-55
2022/03/24 06:19:35;;;;;;;68.50;34.95;;;;;;;3.91;96.25;102901.97;5013942;28;20026;-55
2022/03/24 06:22:00;;;;;;;78.82;39.22;;;;;;;3.95;96.36;102902.69;5012350;28;20356;-55
2022/03/24 06:24:25;;;;;;;81.05;38.17;;;;;;;3.98;96.68;102910.50;5015585;28;20487;-55
2022/03/24 06:26:51;;;;;;;64.95;32.58;;;;;;;4.02;97.66;102913.84;5000791;28;20972;-55
2022/03/24 06:29:16;;;;;;;66.30;32.22;;;;;;;4.00;97.49;102913.91;4996914;28;20599;-54
2022/03/24 06:31:41;;;;;;;69.70;31.88;;;;;;;4.04;97.98;102912.00;5013452;28;20032;-55
2022/03/24 06:34:08;;;;;;;74.78;33.72;;;;;;;4.03;97.17;102908.50;5004719;28;20274;-56
2022/03/24 06:36:33;;;;;;;79.85;34.60;;;;;;;4.03;98.43;102911.16;5002156;28;20053;-56
2022/03/24 06:38:59;;;;;;;78.95;35.28;;;;;;;4.05;98.19;102906.66;5001825;28;20032;-54
2022/03/24 06:41:25;;;;;;;71.68;34.28;;;;;;;4.09;98.92;102910.00;4997600;28;20030;-56
2022/03/24 06:43:50;;;;;;;76.72;34.33;;;;;;;4.17;97.98;102896.47;4994540;28;20561;-55
2022/03/24 06:46:15;;;;;;;73.53;34.88;;;;;;;4.27;97.49;102905.69;4995059;28;20033;-56
2022/03/24 06:48:41;;;;;;;78.60;35.58;;;;;;;4.36;97.05;102910.59;5001582;28;20033;-55
2022/03/24 06:51:07;;;;;;;77.97;35.50;;;;;;;4.46;96.56;102914.53;5003904;28;20034;-55
2022/03/24 06:53:32;;;;;;;73.75;35.22;;;;;;;4.55;96.33;102910.59;5004514;28;20162;-56
2022/03/24 06:55:59;;;;;;;69.90;35.22;;;;;;;4.63;95.89;102911.09;5000110;28;20025;-55
2022/03/24 06:58:25;;;;;;;75.65;34.53;;;;;;;4.71;95.97;102910.72;4994449;28;20082;-55
2022/03/24 07:00:50;;;;;;;77.03;35.25;;;;;;;4.74;96.56;102913.25;4994355;28;20465;-55
2022/03/24 07:03:16;;;;;;;80.25;35.17;;;;;;;4.81;95.82;102914.66;4996471;28;20028;-55
2022/03/24 07:05:41;;;;;;;74.13;35.55;;;;;;;4.90;95.18;102913.38;5011757;28;20083;-54
2022/03/24 07:08:08;;;;;;;72.15;36.03;;;;;;;5.01;94.38;102918.16;5007713;28;20113;-52
2022/03/24 07:10:33;;;;;;;78.88;36.17;;;;;;;5.13;93.60;102916.72;5006804;28;20271;-56
2022/03/24 07:12:59;;;;;;;77.82;35.60;;;;;;;5.25;93.86;102915.25;5005556;28;20404;-55
2022/03/24 07:15:25;;;;;;;74.40;36.15;;;;;;;5.42;93.92;102920.56;5014401;28;20040;-54
2022/03/24 07:17:51;;;;;;;76.68;36.20;;;;;;;5.58;93.59;102921.53;5011909;28;20061;-55
2022/03/24 07:20:16;;;;;;;91.35;36.47;;;;;;;5.75;93.52;102922.44;5001222;28;20417;-55
2022/03/24 07:22:42;;;;;;;75.15;35.80;;;;;;;5.94;94.07;102922.34;5006713;28;20125;-55
2022/03/24 07:25:09;;;;;;;76.55;35.40;;;;;;;6.10;92.14;102925.97;5008078;28;20033;-56
2022/03/24 07:27:34;;;;;;;77.35;35.33;;;;;;;6.25;91.38;102926.13;5012157;28;20132;-55
2022/03/24 07:30:01;;;;;;;83.50;34.60;;;;;;;6.45;91.27;102933.88;4997681;28;20034;-56
2022/03/24 07:32:26;;;;;;;79.95;35.92;;;;;;;6.56;91.49;102925.31;5008266;28;20060;-56
2022/03/24 07:34:51;;;;;;;74.80;34.28;;;;;;;6.76;91.29;102939.31;4993799;28;20033;-56
2022/03/24 07:37:17;;;;;;;85.78;35.70;;;;;;;6.92;91.59;102934.84;4992715;28;20345;-55
2022/03/24 07:39:42;;;;;;;72.72;35.40;;;;;;;7.10;90.51;102931.16;5005804;28;20018;-56
2022/03/24 07:42:08;;;;;;;76.03;36.38;;;;;;;7.28;90.06;102934.56;4996159;28;20024;-56
2022/03/24 07:44:34;;;;;;;82.10;34.67;;;;;;;7.47;88.29;102931.69;4995930;28;20445;-56
2022/03/24 07:46:59;;;;;;;80.28;36.70;;;;;;;7.65;87.95;102936.88;4993540;28;20018;-56
2022/03/24 07:49:24;;;;;;;79.22;34.53;;;;;;;7.81;86.73;102935.03;5002822;28;20029;-56
2022/03/24 07:51:50;;;;;;;70.45;35.38;;;;;;;7.99;85.93;102940.19;4998075;28;20036;-56
2022/03/24 07:54:15;;;;;;;71.10;35.40;;;;;;;8.14;84.38;102930.44;4992096;28;20026;-56
2022/03/24 07:56:41;;;;;;;80.07;36.00;;;;;;;8.28;83.13;102943.75;4995886;28;20018;-56
2022/03/24 07:59:06;;;;;;;77.05;35.15;;;;;;;8.41;82.65;102941.19;4993233;28;20085;-55
2022/03/24 08:01:36;;;;;;;65.47;34.78;;;;;;;8.57;82.98;102944.63;4992925;28;20022;-56
2022/03/24 08:04:03;;;;;;;73.93;36.00;;;;;;;8.70;82.82;102939.38;5000630;28;20036;-56
2022/03/24 08:06:30;;;;;;;82.93;35.38;;;;;;;8.87;82.37;102948.13;5003381;28;20030;-56
2022/03/24 08:08:56;;;;;;;80.22;36.05;;;;;;;9.09;80.63;102947.59;4993435;28;20034;-56
2022/03/24 08:11:22;;;;;;;68.40;34.58;;;;;;;9.23;80.43;102947.56;4992877;28;20022;-56
2022/03/24 08:13:50;;;;;;;70.75;36.20;;;;;;;9.30;76.38;102946.19;4997750;28;20541;-54
2022/03/24 08:16:15;;;;;;;71.50;34.83;;;;;;;9.53;75.95;102946.47;4993692;28;20110;-56
2022/03/24 08:18:41;;;;;;;73.13;36.15;;;;;;;9.64;73.36;102948.41;5005474;28;20591;-55
2022/03/24 08:21:06;;;;;;;82.18;38.40;;;;;;;9.77;70.23;102945.78;5013380;28;20025;-56
2022/03/24 08:23:31;;;;;;;79.40;41.63;;;;;;;9.91;66.87;102951.00;5011875;28;20578;-56
2022/03/24 08:25:56;;;;;;;76.18;39.97;;;;;;;10.00;64.04;102955.75;5005285;28;20030;-56
2022/03/24 08:28:22;;;;;;;77.72;41.30;;;;;;;10.15;65.32;102952.97;5009592;28;20025;-57
2022/03/24 08:30:47;;;;;;;84.47;41.08;;;;;;;10.31;63.90;102956.28;5000350;28;20117;-57
2022/03/24 08:33:13;;;;;;;78.00;40.13;;;;;;;10.41;62.76;102946.69;4992078;28;20018;-56
2022/03/24 08:35:40;;;;;;;77.35;38.85;;;;;;;10.61;63.72;102955.97;5002281;28;20511;-56
2022/03/24 08:38:06;;;;;;;71.97;38.85;;;;;;;10.74;58.87;102955.97;5011552;28;20051;-56
2022/03/24 08:40:31;;;;;;;73.40;36.75;;;;;;;10.88;60.19;102959.44;5011472;28;20081;-56
2022/03/24 08:42:57;;;;;;;65.32;34.83;;;;;;;10.94;61.57;102946.47;5013185;28;20491;-56
2022/03/24 08:45:22;;;;;;;70.07;34.53;;;;;;;11.12;61.33;102954.13;5013261;28;20048;-57
2022/03/24 08:47:48;;;;;;;66.47;33.35;;;;;;;11.29;57.46;102956.41;5008787;28;20180;-57
2022/03/24 08:50:14;;;;;;;73.60;34.33;;;;;;;11.49;60.38;102960.28;4992755;28;20034;-57
2022/03/24 08:52:41;;;;;;;66.30;33.70;;;;;;;11.69;60.03;102960.59;4991935;28;20186;-56
2022/03/24 08:55:08;;;;;;;67.15;33.25;;;;;;;11.87;57.24;102956.50;5012658;28;20120;-56
2022/03/24 08:57:35;;;;;;;64.57;33.08;;;;;;;12.02;55.02;102962.53;5008997;28;20286;-56
2022/03/24 09:00:07;;;;;;;63.17;33.75;;;;;;;12.17;56.02;102960.50;5003397;28;20465;-56
2022/03/24 09:02:32;;;;;;;62.63;32.65;;;;;;;12.43;54.91;102963.81;4994296;28;20103;-56
2022/03/24 09:04:58;;;;;;;61.15;33.38;;;;;;;12.57;53.39;102965.38;4990432;28;20897;-56
2022/03/24 09:07:23;;;;;;;68.65;34.20;;;;;;;12.67;52.79;102973.56;4993274;28;20206;-57
2022/03/24 09:09:48;;;;;;;67.03;33.08;;;;;;;12.84;54.22;102969.53;4992101;28;20034;-57
2022/03/24 09:12:14;;;;;;;69.80;33.78;;;;;;;12.99;52.76;102978.16;5006800;28;20376;-55
2022/03/24 09:14:41;;;;;;;69.95;33.30;;;;;;;13.16;51.74;102974.09;5007070;28;20481;-56
2022/03/24 09:17:08;;;;;;;61.95;32.13;;;;;;;13.28;49.54;102974.94;4993214;28;20563;-57
2022/03/24 09:19:34;;;;;;;70.15;31.73;;;;;;;13.39;50.70;102985.63;4991934;28;20345;-57
2022/03/24 09:22:00;;;;;;;63.05;31.27;;;;;;;13.57;50.59;102976.06;5014558;28;20026;-56
2022/03/24 09:24:27;;;;;;;56.28;29.65;;;;;;;13.75;49.98;102976.34;4993812;28;20033;-57
2022/03/24 09:26:52;;;;;;;62.47;32.25;;;;;;;13.89;49.23;102983.25;5010338;28;20091;-56
2022/03/24 09:29:18;;;;;;;61.28;31.05;;;;;;;13.98;49.58;102984.28;4998718;28;20313;-57
2022/03/24 09:31:43;;;;;;;56.58;29.13;;;;;;;14.16;46.73;102973.81;5012005;28;20029;-56
2022/03/24 09:34:09;;;;;;;53.90;29.63;;;;;;;14.31;46.99;102977.84;5010976;28;20051;-57
2022/03/24 09:36:35;;;;;;;51.58;28.23;;;;;;;14.46;47.35;102967.59;5006321;28;20545;-57
2022/03/24 09:39:01;;;;;;;49.33;28.05;;;;;;;14.65;45.83;102977.59;4991362;28;20026;-55
2022/03/24 09:41:27;;;;;;;51.85;28.20;;;;;;;14.80;43.73;102982.59;5002596;28;20621;-57
2022/03/24 09:43:52;;;;;;;61.72;30.50;;;;;;;14.96;44.87;102977.56;5010770;28;20021;-56
2022/03/24 09:46:19;;;;;;;52.80;29.75;;;;;;;15.05;44.76;102984.81;5012238;28;20044;-57
2022/03/24 09:48:44;;;;;;;57.60;30.83;;;;;;;15.15;41.87;102984.81;5011222;28;20441;-57
2022/03/24 09:51:11;;;;;;;61.00;31.55;;;;;;;15.24;41.94;102980.44;5012445;28;20296;-58
2022/03/24 09:53:39;;;;;;;60.65;33.33;;;;;;;15.36;42.09;102973.09;5018186;28;20087;-56
2022/03/24 09:56:05;;;;;;;60.95;33.42;;;;;;;15.43;42.26;102976.94;5005148;28;20030;-56
2022/03/24 09:58:31;;;;;;;53.72;28.25;;;;;;;15.54;39.22;102970.56;5006626;28;20037;-55
2022/03/24 10:00:56;;;;;;;52.50;27.52;;;;;;;15.66;36.90;102969.41;5009930;28;20025;-57
2022/03/24 10:03:22;;;;;;;51.88;27.73;;;;;;;15.87;39.58;102972.00;5006092;28;20599;-56
2022/03/24 10:06:02;;;;;;;51.28;28.73;;;;;;;16.01;36.43;102974.22;5002816;28;20029;-57
2022/03/24 10:08:28;;;;;;;55.92;28.77;;;;;;;16.03;35.98;102974.91;4996106;28;20026;-55
2022/03/24 10:11:04;;;;;;;45.97;25.98;;;;;;;16.09;35.33;102978.03;4995382;28;20034;-55
2022/03/24 10:13:51;;;;;;;44.58;24.05;;;;;;;16.20;33.39;102970.63;4995027;28;20089;-56
2022/03/24 10:16:37;;;;;;;42.88;24.02;;;;;;;16.34;33.79;102976.53;5013787;28;20029;-57
2022/03/24 10:19:07;;;;;;;43.95;23.05;;;;;;;16.46;32.98;102966.44;5013077;28;20132;-57
2022/03/24 10:21:36;;;;;;;44.97;23.23;;;;;;;16.56;30.21;102968.09;5015167;28;20070;-56
2022/03/24 10:24:13;;;;;;;38.35;21.95;;;;;;;16.65;31.83;102962.78;5014588;28;20443;-56
2022/03/24 10:27:03;;;;;;;39.40;22.42;;;;;;;16.81;32.91;102960.28;5001676;28;20032;-56
2022/03/24 10:29:30;;;;;;;38.58;23.02;;;;;;;16.94;29.95;102962.69;5014578;28;20218;-58
2022/03/24 10:31:58;;;;;;;38.25;22.98;;;;;;;17.00;30.41;102961.22;4997337;28;20522;-57
2022/03/24 10:34:34;;;;;;;38.83;23.38;;;;;;;17.13;30.70;102965.25;4998599;28;20044;-56
2022/03/24 10:37:12;;;;;;;36.08;22.83;;;;;;;17.31;31.32;102959.00;5004161;28;20168;-57
2022/03/24 10:39:39;;;;;;;40.15;22.77;;;;;;;17.39;28.88;102955.53;4995690;28;20121;-57
2022/03/24 10:42:18;;;;;;;45.15;23.67;;;;;;;17.42;29.42;102957.94;5005534;28;20025;-58
2022/03/24 10:45:07;;;;;;;39.17;22.08;;;;;;;17.58;31.32;102960.75;5014463;28;20028;-57
2022/03/24 10:47:50;;;;;;;39.55;22.17;;;;;;;17.71;31.80;102966.63;5012143;28;20022;-57
2022/03/24 10:50:42;;;;;;;41.38;23.05;;;;;;;17.87;30.47;102956.97;5014637;28;20087;-57
2022/03/24 10:53:12;;;;;;;46.63;24.17;;;;;;;17.94;30.11;102954.47;5015228;28;20508;-57
2022/03/24 10:55:43;;;;;;;40.80;23.65;;;;;;;18.08;29.78;102959.34;5006145;28;20376;-58
2022/03/24 10:58:19;;;;;;;42.35;24.17;;;;;;;18.18;29.73;102945.69;4992822;28;20540;-57
2022/03/24 11:00:47;;;;;;;44.33;24.25;;;;;;;18.24;27.82;102954.03;5008701;28;20021;-56
2022/03/24 11:03:15;;;;;;;43.10;24.23;;;;;;;18.25;29.61;102955.72;5013410;28;20479;-57
2022/03/24 11:05:40;;;;;;;42.08;24.63;;;;;;;18.34;30.72;102945.78;5013757;28;20037;-58
2022/03/24 11:08:08;;;;;;;42.15;24.50;;;;;;;18.28;29.39;102951.84;4995556;28;20234;-56
2022/03/24 11:10:42;;;;;;;39.72;24.90;;;;;;;18.27;29.70;102953.69;5010627;28;20026;-58
2022/03/24 11:13:08;;;;;;;40.58;22.73;;;;;;;18.31;30.09;102948.78;5011540;28;20076;-56